sensor_id;sensor_type;location;lat;lon;timestamp;temperature;humidity
51902;DHT22;37929;53.218;6.548;2022-11-20T00:00:50;1.50;99.90
51902;DHT22;37929;53.218;6.548;2022-11-20T00:03:16;1.50;99.90
51902;DHT22;37929;53.218;6.548;2022-11-20T00:05:43;1.50;99.90
51902;DHT22;37929;53.218;6.548;2022-11-20T00:08:09;1.50;99.90
51902;DHT22;37929;53.218;6.548;2022-11-20T00:10:39;1.60;99.90
51902;DHT22;37929;53.218;6.548;2022-11-20T00:13:05;1.50;99.90
51902;DHT22;37929;53.218;6.548;2022-11-20T00:15:31;1.60;99.90
51902;DHT22;37929;53.218;6.548;2022-11-20T00:17:59;1.60;99.90
51902;DHT22;37929;53.218;6.548;2022-11-20T00:20:25;1.50;99.90
51902;DHT22;37929;53.218;6.548;2022-11-20T00:22:51;1.90;99.90
51902;DHT22;37929;53.218;6.548;2022-11-20T00:25:17;1.50;99.90
51902;DHT22;37929;53.218;6.548;2022-11-20T00:27:42;1.50;99.90
51902;DHT22;37929;53.218;6.548;2022-11-20T00:30:09;1.50;99.90
51902;DHT22;37929;53.218;6.548;2022-11-20T00:32:35;1.50;99.90
51902;DHT22;37929;53.218;6.548;2022-11-20T00:35:00;1.50;99.90
51902;DHT22;37929;53.218;6.548;2022-11-20T00:37:26;1.50;99.90
51902;DHT22;37929;53.218;6.548;2022-11-20T00:39:52;1.50;99.90
51902;DHT22;37929;53.218;6.548;2022-11-20T00:42:18;1.60;99.90
51902;DHT22;37929;53.218;6.548;2022-11-20T00:44:44;1.40;99.90
51902;DHT22;37929;53.218;6.548;2022-11-20T00:47:12;1.40;99.90
51902;DHT22;37929;53.218;6.548;2022-11-20T00:49:38;1.40;99.90
51902;DHT22;37929;53.218;6.548;2022-11-20T00:52:04;1.30;99.90
51902;DHT22;37929;53.218;6.548;2022-11-20T00:54:29;1.30;99.90
51902;DHT22;37929;53.218;6.548;2022-11-20T00:56:55;1.30;99.90
51902;DHT22;37929;53.218;6.548;2022-11-20T00:59:21;1.40;99.90
51902;DHT22;37929;53.218;6.548;2022-11-20T01:01:46;1.40;99.90
51902;DHT22;37929;53.218;6.548;2022-11-20T01:04:12;1.30;99.90
51902;DHT22;37929;53.218;6.548;2022-11-20T01:06:39;2.00;99.90
51902;DHT22;37929;53.218;6.548;2022-11-20T01:09:10;1.40;99.90
51902;DHT22;37929;53.218;6.548;2022-11-20T01:11:42;1.30;99.90
51902;DHT22;37929;53.218;6.548;2022-11-20T01:14:12;1.30;99.90
51902;DHT22;37929;53.218;6.548;2022-11-20T01:16:40;1.30;99.90
51902;DHT22;37929;53.218;6.548;2022-11-20T01:19:10;1.30;99.90
51902;DHT22;37929;53.218;6.548;2022-11-20T01:21:41;1.30;99.90
51902;DHT22;37929;53.218;6.548;2022-11-20T01:24:10;1.90;99.90
51902;DHT22;37929;53.218;6.548;2022-11-20T01:26:38;1.30;99.90
51902;DHT22;37929;53.218;6.548;2022-11-20T01:29:06;1.30;99.90
51902;DHT22;37929;53.218;6.548;2022-11-20T01:31:35;1.30;99.90
51902;DHT22;37929;53.218;6.548;2022-11-20T01:34:03;1.30;99.90
51902;DHT22;37929;53.218;6.548;2022-11-20T01:36:31;1.40;99.90
51902;DHT22;37929;53.218;6.548;2022-11-20T01:39:00;1.20;99.90
51902;DHT22;37929;53.218;6.548;2022-11-20T01:41:29;1.20;99.90
51902;DHT22;37929;53.218;6.548;2022-11-20T01:44:18;1.80;99.90
51902;DHT22;37929;53.218;6.548;2022-11-20T01:52:07;1.10;99.90
51902;DHT22;37929;53.218;6.548;2022-11-20T01:54:42;1.10;99.90
51902;DHT22;37929;53.218;6.548;2022-11-20T01:57:11;1.10;99.90
51902;DHT22;37929;53.218;6.548;2022-11-20T01:59:41;1.80;99.90
51902;DHT22;37929;53.218;6.548;2022-11-20T02:02:10;1.10;99.90
51902;DHT22;37929;53.218;6.548;2022-11-20T02:04:36;1.10;99.90
51902;DHT22;37929;53.218;6.548;2022-11-20T02:07:04;1.00;99.90
51902;DHT22;37929;53.218;6.548;2022-11-20T02:09:31;1.50;99.90
51902;DHT22;37929;53.218;6.548;2022-11-20T02:11:57;1.10;99.90
51902;DHT22;37929;53.218;6.548;2022-11-20T02:14:24;1.10;99.90
51902;DHT22;37929;53.218;6.548;2022-11-20T02:16:51;1.70;99.90
51902;DHT22;37929;53.218;6.548;2022-11-20T02:22:03;1.00;99.90
51902;DHT22;37929;53.218;6.548;2022-11-20T02:24:30;0.90;99.90
51902;DHT22;37929;53.218;6.548;2022-11-20T02:29:37;1.00;99.90
51902;DHT22;37929;53.218;6.548;2022-11-20T02:32:03;1.00;99.90
51902;DHT22;37929;53.218;6.548;2022-11-20T02:34:29;1.80;99.90
51902;DHT22;37929;53.218;6.548;2022-11-20T02:36:56;1.10;99.90
51902;DHT22;37929;53.218;6.548;2022-11-20T02:39:24;1.10;99.90
51902;DHT22;37929;53.218;6.548;2022-11-20T02:41:55;1.80;99.90
51902;DHT22;37929;53.218;6.548;2022-11-20T02:44:21;1.00;99.90
51902;DHT22;37929;53.218;6.548;2022-11-20T02:46:47;1.40;99.90
51902;DHT22;37929;53.218;6.548;2022-11-20T02:49:12;1.20;99.90
51902;DHT22;37929;53.218;6.548;2022-11-20T02:51:38;1.30;99.90
51902;DHT22;37929;53.218;6.548;2022-11-20T02:54:04;1.30;99.90
51902;DHT22;37929;53.218;6.548;2022-11-20T02:56:30;1.20;99.90
51902;DHT22;37929;53.218;6.548;2022-11-20T02:58:56;1.20;99.90
51902;DHT22;37929;53.218;6.548;2022-11-20T03:01:22;1.90;99.90
51902;DHT22;37929;53.218;6.548;2022-11-20T03:03:48;1.10;99.90
51902;DHT22;37929;53.218;6.548;2022-11-20T03:06:15;1.20;99.90
51902;DHT22;37929;53.218;6.548;2022-11-20T03:08:41;1.20;99.90
51902;DHT22;37929;53.218;6.548;2022-11-20T03:11:08;1.20;99.90
51902;DHT22;37929;53.218;6.548;2022-11-20T03:13:35;1.20;99.90
51902;DHT22;37929;53.218;6.548;2022-11-20T03:16:12;1.20;99.90
51902;DHT22;37929;53.218;6.548;2022-11-20T03:18:39;1.20;99.90
51902;DHT22;37929;53.218;6.548;2022-11-20T03:21:05;1.20;99.90
51902;DHT22;37929;53.218;6.548;2022-11-20T03:23:32;1.20;99.90
51902;DHT22;37929;53.218;6.548;2022-11-20T03:28:42;1.20;99.90
51902;DHT22;37929;53.218;6.548;2022-11-20T03:31:13;1.20;99.90
51902;DHT22;37929;53.218;6.548;2022-11-20T03:33:40;1.20;99.90
51902;DHT22;37929;53.218;6.548;2022-11-20T03:36:11;1.90;99.90
51902;DHT22;37929;53.218;6.548;2022-11-20T03:38:38;1.20;99.90
51902;DHT22;37929;53.218;6.548;2022-11-20T03:41:06;1.20;99.90
51902;DHT22;37929;53.218;6.548;2022-11-20T03:43:32;1.30;99.90
51902;DHT22;37929;53.218;6.548;2022-11-20T03:45:59;1.30;99.90
51902;DHT22;37929;53.218;6.548;2022-11-20T03:48:26;1.30;99.90
51902;DHT22;37929;53.218;6.548;2022-11-20T03:50:53;1.30;99.90
51902;DHT22;37929;53.218;6.548;2022-11-20T03:53:19;1.90;99.90
51902;DHT22;37929;53.218;6.548;2022-11-20T03:55:50;1.20;99.90
51902;DHT22;37929;53.218;6.548;2022-11-20T03:58:16;1.50;99.90
51902;DHT22;37929;53.218;6.548;2022-11-20T04:00:43;1.20;99.90
51902;DHT22;37929;53.218;6.548;2022-11-20T04:03:09;1.50;99.90
51902;DHT22;37929;53.218;6.548;2022-11-20T04:05:35;1.10;99.90
51902;DHT22;37929;53.218;6.548;2022-11-20T04:08:00;1.10;99.90
51902;DHT22;37929;53.218;6.548;2022-11-20T04:10:26;1.10;99.90
51902;DHT22;37929;53.218;6.548;2022-11-20T04:12:52;1.10;99.90
51902;DHT22;37929;53.218;6.548;2022-11-20T04:15:18;1.10;99.90
51902;DHT22;37929;53.218;6.548;2022-11-20T04:17:44;1.50;99.90
51902;DHT22;37929;53.218;6.548;2022-11-20T04:20:12;1.80;99.90
51902;DHT22;37929;53.218;6.548;2022-11-20T04:22:38;1.00;99.90
51902;DHT22;37929;53.218;6.548;2022-11-20T04:25:04;1.50;99.90
51902;DHT22;37929;53.218;6.548;2022-11-20T04:27:30;1.10;99.90
51902;DHT22;37929;53.218;6.548;2022-11-20T04:29:56;1.10;99.90
51902;DHT22;37929;53.218;6.548;2022-11-20T04:32:22;1.10;99.90
51902;DHT22;37929;53.218;6.548;2022-11-20T04:34:47;1.20;99.90
51902;DHT22;37929;53.218;6.548;2022-11-20T04:37:13;1.70;99.90
51902;DHT22;37929;53.218;6.548;2022-11-20T04:39:39;1.20;99.90
51902;DHT22;37929;53.218;6.548;2022-11-20T04:42:04;1.30;99.90
51902;DHT22;37929;53.218;6.548;2022-11-20T04:44:49;2.00;99.90
51902;DHT22;37929;53.218;6.548;2022-11-20T04:47:15;1.50;99.90
51902;DHT22;37929;53.218;6.548;2022-11-20T04:49:40;0.70;99.90
51902;DHT22;37929;53.218;6.548;2022-11-20T04:52:06;1.00;99.90
51902;DHT22;37929;53.218;6.548;2022-11-20T04:54:32;1.20;99.90
51902;DHT22;37929;53.218;6.548;2022-11-20T04:56:57;1.20;99.90
51902;DHT22;37929;53.218;6.548;2022-11-20T04:59:26;1.20;99.90
51902;DHT22;37929;53.218;6.548;2022-11-20T05:01:51;2.30;99.90
51902;DHT22;37929;53.218;6.548;2022-11-20T05:04:17;1.20;99.90
51902;DHT22;37929;53.218;6.548;2022-11-20T05:06:43;1.20;99.90
51902;DHT22;37929;53.218;6.548;2022-11-20T05:09:09;1.60;99.90
51902;DHT22;37929;53.218;6.548;2022-11-20T05:11:34;1.20;99.90
51902;DHT22;37929;53.218;6.548;2022-11-20T05:14:00;1.20;99.90
51902;DHT22;37929;53.218;6.548;2022-11-20T05:16:26;1.20;99.90
51902;DHT22;37929;53.218;6.548;2022-11-20T05:18:52;1.20;99.90
51902;DHT22;37929;53.218;6.548;2022-11-20T05:21:18;1.20;99.90
51902;DHT22;37929;53.218;6.548;2022-11-20T05:23:45;1.20;99.90
51902;DHT22;37929;53.218;6.548;2022-11-20T05:26:16;1.20;99.90
51902;DHT22;37929;53.218;6.548;2022-11-20T05:28:43;1.20;99.90
51902;DHT22;37929;53.218;6.548;2022-11-20T05:31:13;1.10;99.90
51902;DHT22;37929;53.218;6.548;2022-11-20T05:33:43;1.10;99.90
51902;DHT22;37929;53.218;6.548;2022-11-20T05:36:11;2.20;99.90
51902;DHT22;37929;53.218;6.548;2022-11-20T05:38:37;1.20;99.90
51902;DHT22;37929;53.218;6.548;2022-11-20T05:41:09;1.20;99.90
51902;DHT22;37929;53.218;6.548;2022-11-20T05:43:36;1.20;99.90
51902;DHT22;37929;53.218;6.548;2022-11-20T05:46:03;1.20;99.90
51902;DHT22;37929;53.218;6.548;2022-11-20T05:48:31;1.20;99.90
51902;DHT22;37929;53.218;6.548;2022-11-20T05:51:01;1.10;99.90
51902;DHT22;37929;53.218;6.548;2022-11-20T05:53:28;1.10;99.90
51902;DHT22;37929;53.218;6.548;2022-11-20T05:56:15;1.20;99.90
51902;DHT22;37929;53.218;6.548;2022-11-20T05:58:42;1.10;99.90
51902;DHT22;37929;53.218;6.548;2022-11-20T06:03:41;1.20;99.90
51902;DHT22;37929;53.218;6.548;2022-11-20T06:06:16;1.30;99.90
51902;DHT22;37929;53.218;6.548;2022-11-20T06:08:42;1.30;99.90
51902;DHT22;37929;53.218;6.548;2022-11-20T06:11:09;1.30;99.90
51902;DHT22;37929;53.218;6.548;2022-11-20T06:13:35;1.40;99.90
51902;DHT22;37929;53.218;6.548;2022-11-20T06:16:01;1.40;99.90
51902;DHT22;37929;53.218;6.548;2022-11-20T06:18:30;1.40;99.90
51902;DHT22;37929;53.218;6.548;2022-11-20T06:21:05;1.40;99.90
51902;DHT22;37929;53.218;6.548;2022-11-20T06:23:32;1.30;99.90
51902;DHT22;37929;53.218;6.548;2022-11-20T06:26:03;1.30;99.90
51902;DHT22;37929;53.218;6.548;2022-11-20T06:28:30;1.30;99.90
51902;DHT22;37929;53.218;6.548;2022-11-20T06:30:56;1.30;99.90
51902;DHT22;37929;53.218;6.548;2022-11-20T06:33:22;2.00;99.90
51902;DHT22;37929;53.218;6.548;2022-11-20T06:35:49;1.20;99.90
51902;DHT22;37929;53.218;6.548;2022-11-20T06:38:16;1.50;99.90
51902;DHT22;37929;53.218;6.548;2022-11-20T06:40:42;1.30;99.90
51902;DHT22;37929;53.218;6.548;2022-11-20T06:43:09;1.30;99.90
51902;DHT22;37929;53.218;6.548;2022-11-20T06:45:35;1.30;99.90
51902;DHT22;37929;53.218;6.548;2022-11-20T06:48:01;1.30;99.90
51902;DHT22;37929;53.218;6.548;2022-11-20T06:50:27;1.20;99.90
51902;DHT22;37929;53.218;6.548;2022-11-20T06:52:52;1.30;99.90
51902;DHT22;37929;53.218;6.548;2022-11-20T06:55:18;1.30;99.90
51902;DHT22;37929;53.218;6.548;2022-11-20T06:57:44;1.20;99.90
51902;DHT22;37929;53.218;6.548;2022-11-20T07:00:10;1.20;99.90
51902;DHT22;37929;53.218;6.548;2022-11-20T07:02:36;1.30;99.90
51902;DHT22;37929;53.218;6.548;2022-11-20T07:05:05;1.30;99.90
51902;DHT22;37929;53.218;6.548;2022-11-20T07:07:32;1.40;99.90
51902;DHT22;37929;53.218;6.548;2022-11-20T07:09:57;2.30;99.90
51902;DHT22;37929;53.218;6.548;2022-11-20T07:12:23;1.70;99.90
51902;DHT22;37929;53.218;6.548;2022-11-20T07:14:48;1.40;99.90
51902;DHT22;37929;53.218;6.548;2022-11-20T07:17:14;1.40;99.90
51902;DHT22;37929;53.218;6.548;2022-11-20T07:19:40;1.30;99.90
51902;DHT22;37929;53.218;6.548;2022-11-20T07:22:06;1.40;99.90
51902;DHT22;37929;53.218;6.548;2022-11-20T07:24:31;1.70;99.90
51902;DHT22;37929;53.218;6.548;2022-11-20T07:26:57;1.50;99.90
51902;DHT22;37929;53.218;6.548;2022-11-20T07:29:23;1.30;99.90
51902;DHT22;37929;53.218;6.548;2022-11-20T07:31:49;1.50;99.90
51902;DHT22;37929;53.218;6.548;2022-11-20T07:34:15;1.50;99.90
51902;DHT22;37929;53.218;6.548;2022-11-20T07:36:43;1.60;99.90
51902;DHT22;37929;53.218;6.548;2022-11-20T07:39:09;1.60;99.90
51902;DHT22;37929;53.218;6.548;2022-11-20T07:41:34;1.60;99.90
51902;DHT22;37929;53.218;6.548;2022-11-20T07:44:01;1.80;99.90
51902;DHT22;37929;53.218;6.548;2022-11-20T07:46:26;1.50;99.90
51902;DHT22;37929;53.218;6.548;2022-11-20T07:48:52;1.60;99.90
51902;DHT22;37929;53.218;6.548;2022-11-20T07:51:18;1.50;99.90
51902;DHT22;37929;53.218;6.548;2022-11-20T07:53:44;1.50;99.90
51902;DHT22;37929;53.218;6.548;2022-11-20T07:56:09;1.50;99.90
51902;DHT22;37929;53.218;6.548;2022-11-20T07:58:35;2.00;99.90
51902;DHT22;37929;53.218;6.548;2022-11-20T08:01:05;1.60;99.90
51902;DHT22;37929;53.218;6.548;2022-11-20T08:03:31;1.50;99.90
51902;DHT22;37929;53.218;6.548;2022-11-20T08:06:00;1.50;99.90
51902;DHT22;37929;53.218;6.548;2022-11-20T08:08:27;1.60;99.90
51902;DHT22;37929;53.218;6.548;2022-11-20T08:10:53;1.50;99.90
51902;DHT22;37929;53.218;6.548;2022-11-20T08:13:38;1.60;99.90
51902;DHT22;37929;53.218;6.548;2022-11-20T08:16:22;1.50;99.90
51902;DHT22;37929;53.218;6.548;2022-11-20T08:18:48;1.60;99.90
51902;DHT22;37929;53.218;6.548;2022-11-20T08:21:15;1.60;99.90
51902;DHT22;37929;53.218;6.548;2022-11-20T08:23:40;2.50;99.90
51902;DHT22;37929;53.218;6.548;2022-11-20T08:26:06;1.60;99.90
51902;DHT22;37929;53.218;6.548;2022-11-20T08:28:32;1.70;99.90
51902;DHT22;37929;53.218;6.548;2022-11-20T08:30:59;1.60;99.90
51902;DHT22;37929;53.218;6.548;2022-11-20T08:33:26;2.40;99.90
51902;DHT22;37929;53.218;6.548;2022-11-20T08:35:51;2.30;99.90
51902;DHT22;37929;53.218;6.548;2022-11-20T08:38:17;1.70;99.90
51902;DHT22;37929;53.218;6.548;2022-11-20T08:40:43;1.70;99.90
51902;DHT22;37929;53.218;6.548;2022-11-20T08:43:31;2.30;99.90
51902;DHT22;37929;53.218;6.548;2022-11-20T08:46:00;1.70;99.90
51902;DHT22;37929;53.218;6.548;2022-11-20T08:48:25;2.50;99.90
51902;DHT22;37929;53.218;6.548;2022-11-20T08:50:51;1.70;99.90
51902;DHT22;37929;53.218;6.548;2022-11-20T08:53:20;2.80;99.90
51902;DHT22;37929;53.218;6.548;2022-11-20T08:55:46;1.30;99.90
51902;DHT22;37929;53.218;6.548;2022-11-20T08:58:12;1.80;99.90
51902;DHT22;37929;53.218;6.548;2022-11-20T09:00:40;2.90;99.90
51902;DHT22;37929;53.218;6.548;2022-11-20T09:03:06;1.90;99.90
51902;DHT22;37929;53.218;6.548;2022-11-20T09:05:32;2.50;99.90
51902;DHT22;37929;53.218;6.548;2022-11-20T09:07:58;1.70;99.90
51902;DHT22;37929;53.218;6.548;2022-11-20T09:10:25;2.00;99.90
51902;DHT22;37929;53.218;6.548;2022-11-20T09:12:53;1.70;99.90
51902;DHT22;37929;53.218;6.548;2022-11-20T09:15:22;1.70;99.90
51902;DHT22;37929;53.218;6.548;2022-11-20T09:17:52;1.70;99.90
51902;DHT22;37929;53.218;6.548;2022-11-20T09:20:20;2.10;99.90
51902;DHT22;37929;53.218;6.548;2022-11-20T09:22:46;1.50;99.90
51902;DHT22;37929;53.218;6.548;2022-11-20T09:25:12;1.50;99.90
51902;DHT22;37929;53.218;6.548;2022-11-20T09:27:38;1.60;99.90
51902;DHT22;37929;53.218;6.548;2022-11-20T09:30:04;1.60;99.90
51902;DHT22;37929;53.218;6.548;2022-11-20T09:32:30;1.60;99.90
51902;DHT22;37929;53.218;6.548;2022-11-20T09:34:55;1.50;99.90
51902;DHT22;37929;53.218;6.548;2022-11-20T09:37:21;1.50;99.90
51902;DHT22;37929;53.218;6.548;2022-11-20T09:39:47;1.40;99.90
51902;DHT22;37929;53.218;6.548;2022-11-20T09:42:40;2.10;99.90
51902;DHT22;37929;53.218;6.548;2022-11-20T09:51:11;1.50;99.90
51902;DHT22;37929;53.218;6.548;2022-11-20T09:56:27;1.50;99.90
51902;DHT22;37929;53.218;6.548;2022-11-20T09:58:59;1.50;99.90
51902;DHT22;37929;53.218;6.548;2022-11-20T10:01:32;1.50;99.90
51902;DHT22;37929;53.218;6.548;2022-11-20T10:04:04;1.60;99.90
51902;DHT22;37929;53.218;6.548;2022-11-20T10:07:28;1.50;99.90
51902;DHT22;37929;53.218;6.548;2022-11-20T10:23:47;1.60;99.90
51902;DHT22;37929;53.218;6.548;2022-11-20T10:26:26;1.70;99.90
51902;DHT22;37929;53.218;6.548;2022-11-20T10:29:14;1.60;99.90
51902;DHT22;37929;53.218;6.548;2022-11-20T10:31:44;1.60;99.90
51902;DHT22;37929;53.218;6.548;2022-11-20T10:34:27;1.60;99.90
51902;DHT22;37929;53.218;6.548;2022-11-20T10:37:17;1.60;99.90
51902;DHT22;37929;53.218;6.548;2022-11-20T10:43:10;1.70;99.90
51902;DHT22;37929;53.218;6.548;2022-11-20T10:45:43;1.70;99.90
51902;DHT22;37929;53.218;6.548;2022-11-20T10:48:14;1.80;99.90
51902;DHT22;37929;53.218;6.548;2022-11-20T10:56:09;1.90;99.90
51902;DHT22;37929;53.218;6.548;2022-11-20T10:58:45;2.00;99.90
51902;DHT22;37929;53.218;6.548;2022-11-20T11:01:20;2.00;99.90
51902;DHT22;37929;53.218;6.548;2022-11-20T11:03:50;2.00;99.90
51902;DHT22;37929;53.218;6.548;2022-11-20T11:06:34;2.10;99.90
51902;DHT22;37929;53.218;6.548;2022-11-20T11:09:10;2.30;99.90
51902;DHT22;37929;53.218;6.548;2022-11-20T11:11:38;2.20;99.90
51902;DHT22;37929;53.218;6.548;2022-11-20T11:14:09;2.50;99.90
51902;DHT22;37929;53.218;6.548;2022-11-20T11:16:35;2.20;99.90
51902;DHT22;37929;53.218;6.548;2022-11-20T11:19:12;2.10;99.90
51902;DHT22;37929;53.218;6.548;2022-11-20T11:21:38;2.10;99.90
51902;DHT22;37929;53.218;6.548;2022-11-20T11:24:24;2.10;99.90
51902;DHT22;37929;53.218;6.548;2022-11-20T11:27:01;2.10;99.90
51902;DHT22;37929;53.218;6.548;2022-11-20T11:29:32;2.20;99.90
51902;DHT22;37929;53.218;6.548;2022-11-20T11:32:13;3.10;99.90
51902;DHT22;37929;53.218;6.548;2022-11-20T11:34:39;2.20;99.90
51902;DHT22;37929;53.218;6.548;2022-11-20T11:37:17;2.20;99.90
51902;DHT22;37929;53.218;6.548;2022-11-20T11:39:43;2.20;99.90
51902;DHT22;37929;53.218;6.548;2022-11-20T11:42:16;2.20;99.90
51902;DHT22;37929;53.218;6.548;2022-11-20T11:44:47;2.70;99.90
51902;DHT22;37929;53.218;6.548;2022-11-20T11:47:35;2.40;99.90
51902;DHT22;37929;53.218;6.548;2022-11-20T12:01:21;2.10;99.90
51902;DHT22;37929;53.218;6.548;2022-11-20T12:04:19;2.20;99.90
51902;DHT22;37929;53.218;6.548;2022-11-20T12:06:51;2.20;99.90
51902;DHT22;37929;53.218;6.548;2022-11-20T12:09:20;2.30;99.90
51902;DHT22;37929;53.218;6.548;2022-11-20T12:12:15;2.30;99.90
51902;DHT22;37929;53.218;6.548;2022-11-20T12:14:47;2.70;99.90
51902;DHT22;37929;53.218;6.548;2022-11-20T12:17:18;2.40;99.90
51902;DHT22;37929;53.218;6.548;2022-11-20T12:19:44;2.90;99.90
51902;DHT22;37929;53.218;6.548;2022-11-20T12:22:24;2.70;99.90
51902;DHT22;37929;53.218;6.548;2022-11-20T12:27:43;2.80;99.90
51902;DHT22;37929;53.218;6.548;2022-11-20T12:30:14;2.90;99.90
51902;DHT22;37929;53.218;6.548;2022-11-20T12:33:12;3.90;99.90
51902;DHT22;37929;53.218;6.548;2022-11-20T12:38:51;2.30;99.90
51902;DHT22;37929;53.218;6.548;2022-11-20T12:41:29;3.30;99.90
51902;DHT22;37929;53.218;6.548;2022-11-20T12:58:42;3.30;99.90
51902;DHT22;37929;53.218;6.548;2022-11-20T13:07:13;3.30;99.90
51902;DHT22;37929;53.218;6.548;2022-11-20T13:09:46;3.40;99.90
51902;DHT22;37929;53.218;6.548;2022-11-20T13:12:25;3.30;99.90
51902;DHT22;37929;53.218;6.548;2022-11-20T13:15:05;3.30;99.90
51902;DHT22;37929;53.218;6.548;2022-11-20T13:17:59;3.30;99.90
51902;DHT22;37929;53.218;6.548;2022-11-20T13:20:25;3.40;99.90
51902;DHT22;37929;53.218;6.548;2022-11-20T13:22:53;3.50;99.90
51902;DHT22;37929;53.218;6.548;2022-11-20T13:25:29;3.40;99.90
51902;DHT22;37929;53.218;6.548;2022-11-20T13:27:58;3.40;99.90
51902;DHT22;37929;53.218;6.548;2022-11-20T13:30:29;3.80;99.90
51902;DHT22;37929;53.218;6.548;2022-11-20T13:38:12;3.50;99.90
51902;DHT22;37929;53.218;6.548;2022-11-20T13:46:04;3.50;99.90
51902;DHT22;37929;53.218;6.548;2022-11-20T13:48:46;3.50;99.90
51902;DHT22;37929;53.218;6.548;2022-11-20T14:01:56;3.50;99.90
51902;DHT22;37929;53.218;6.548;2022-11-20T14:04:36;3.70;99.90
51902;DHT22;37929;53.218;6.548;2022-11-20T14:07:05;4.10;99.90
51902;DHT22;37929;53.218;6.548;2022-11-20T14:09:33;4.00;99.90
51902;DHT22;37929;53.218;6.548;2022-11-20T14:11:59;3.50;99.90
51902;DHT22;37929;53.218;6.548;2022-11-20T14:14:27;3.70;99.90
51902;DHT22;37929;53.218;6.548;2022-11-20T14:17:05;3.50;99.90
51902;DHT22;37929;53.218;6.548;2022-11-20T14:19:32;3.90;99.90
51902;DHT22;37929;53.218;6.548;2022-11-20T14:22:08;3.50;99.90
51902;DHT22;37929;53.218;6.548;2022-11-20T14:24:34;3.50;99.90
51902;DHT22;37929;53.218;6.548;2022-11-20T14:27:00;3.40;99.90
51902;DHT22;37929;53.218;6.548;2022-11-20T14:29:29;3.40;99.90
51902;DHT22;37929;53.218;6.548;2022-11-20T14:31:58;3.40;99.90
51902;DHT22;37929;53.218;6.548;2022-11-20T14:34:38;3.40;99.90
51902;DHT22;37929;53.218;6.548;2022-11-20T14:37:12;3.70;99.90
51902;DHT22;37929;53.218;6.548;2022-11-20T14:39:48;3.30;99.90
51902;DHT22;37929;53.218;6.548;2022-11-20T14:42:23;3.30;99.90
51902;DHT22;37929;53.218;6.548;2022-11-20T14:44:50;3.30;99.90
51902;DHT22;37929;53.218;6.548;2022-11-20T14:47:21;3.30;99.90
51902;DHT22;37929;53.218;6.548;2022-11-20T14:49:47;3.30;99.90
51902;DHT22;37929;53.218;6.548;2022-11-20T14:52:18;3.30;99.90
51902;DHT22;37929;53.218;6.548;2022-11-20T14:54:47;3.20;99.90
51902;DHT22;37929;53.218;6.548;2022-11-20T14:59:49;4.30;99.90
51902;DHT22;37929;53.218;6.548;2022-11-20T15:02:15;4.30;99.90
51902;DHT22;37929;53.218;6.548;2022-11-20T15:04:56;3.20;99.90
51902;DHT22;37929;53.218;6.548;2022-11-20T15:07:33;3.20;99.90
51902;DHT22;37929;53.218;6.548;2022-11-20T15:10:21;3.90;99.90
51902;DHT22;37929;53.218;6.548;2022-11-20T15:12:57;3.10;99.90
51902;DHT22;37929;53.218;6.548;2022-11-20T15:15:48;4.30;99.90
51902;DHT22;37929;53.218;6.548;2022-11-20T15:18:21;3.00;99.90
51902;DHT22;37929;53.218;6.548;2022-11-20T15:20:48;3.80;99.90
51902;DHT22;37929;53.218;6.548;2022-11-20T15:23:18;2.90;99.90
51902;DHT22;37929;53.218;6.548;2022-11-20T15:25:48;3.80;99.90
51902;DHT22;37929;53.218;6.548;2022-11-20T15:28:36;3.90;99.90
51902;DHT22;37929;53.218;6.548;2022-11-20T15:31:03;2.80;99.90
51902;DHT22;37929;53.218;6.548;2022-11-20T15:33:31;2.80;99.90
51902;DHT22;37929;53.218;6.548;2022-11-20T15:36:00;2.90;99.90
51902;DHT22;37929;53.218;6.548;2022-11-20T15:38:26;2.50;99.90
51902;DHT22;37929;53.218;6.548;2022-11-20T15:40:54;3.10;99.90
51902;DHT22;37929;53.218;6.548;2022-11-20T15:43:23;3.40;99.90
51902;DHT22;37929;53.218;6.548;2022-11-20T15:45:55;2.70;99.90
51902;DHT22;37929;53.218;6.548;2022-11-20T15:48:31;2.70;99.90
51902;DHT22;37929;53.218;6.548;2022-11-20T15:53:35;2.70;99.90
51902;DHT22;37929;53.218;6.548;2022-11-20T15:56:01;3.10;99.90
51902;DHT22;37929;53.218;6.548;2022-11-20T15:58:27;2.70;99.90
51902;DHT22;37929;53.218;6.548;2022-11-20T16:00:54;2.70;99.90
51902;DHT22;37929;53.218;6.548;2022-11-20T16:03:20;3.80;99.90
51902;DHT22;37929;53.218;6.548;2022-11-20T16:05:46;2.20;99.90
51902;DHT22;37929;53.218;6.548;2022-11-20T16:08:15;2.70;99.90
51902;DHT22;37929;53.218;6.548;2022-11-20T16:10:41;3.70;99.90
51902;DHT22;37929;53.218;6.548;2022-11-20T16:13:17;2.60;99.90
51902;DHT22;37929;53.218;6.548;2022-11-20T16:16:05;3.10;99.90
51902;DHT22;37929;53.218;6.548;2022-11-20T16:18:34;2.80;99.90
51902;DHT22;37929;53.218;6.548;2022-11-20T16:21:03;2.80;99.90
51902;DHT22;37929;53.218;6.548;2022-11-20T16:23:33;2.80;99.90
51902;DHT22;37929;53.218;6.548;2022-11-20T16:25:59;3.70;99.90
51902;DHT22;37929;53.218;6.548;2022-11-20T16:28:36;3.10;99.90
51902;DHT22;37929;53.218;6.548;2022-11-20T16:31:13;3.30;99.90
51902;DHT22;37929;53.218;6.548;2022-11-20T16:33:42;2.80;99.90
51902;DHT22;37929;53.218;6.548;2022-11-20T16:36:13;2.80;99.90
51902;DHT22;37929;53.218;6.548;2022-11-20T16:38:41;2.80;99.90
51902;DHT22;37929;53.218;6.548;2022-11-20T16:41:08;2.80;99.90
51902;DHT22;37929;53.218;6.548;2022-11-20T16:43:48;2.90;99.90
51902;DHT22;37929;53.218;6.548;2022-11-20T16:46:15;2.50;99.90
51902;DHT22;37929;53.218;6.548;2022-11-20T16:48:41;3.70;99.90
51902;DHT22;37929;53.218;6.548;2022-11-20T16:51:09;3.40;99.90
51902;DHT22;37929;53.218;6.548;2022-11-20T16:53:35;3.10;99.90
51902;DHT22;37929;53.218;6.548;2022-11-20T16:56:12;3.60;99.90
51902;DHT22;37929;53.218;6.548;2022-11-20T16:58:40;2.80;99.90
51902;DHT22;37929;53.218;6.548;2022-11-20T17:01:07;2.80;99.90
51902;DHT22;37929;53.218;6.548;2022-11-20T17:03:39;3.10;99.90
51902;DHT22;37929;53.218;6.548;2022-11-20T17:06:16;2.70;99.90
51902;DHT22;37929;53.218;6.548;2022-11-20T17:08:43;2.70;99.90
51902;DHT22;37929;53.218;6.548;2022-11-20T17:11:12;2.70;99.90
51902;DHT22;37929;53.218;6.548;2022-11-20T17:13:43;3.80;99.90
51902;DHT22;37929;53.218;6.548;2022-11-20T17:16:20;2.80;99.90
51902;DHT22;37929;53.218;6.548;2022-11-20T17:18:46;3.30;99.90
51902;DHT22;37929;53.218;6.548;2022-11-20T17:21:15;2.90;99.90
51902;DHT22;37929;53.218;6.548;2022-11-20T17:23:42;2.90;99.90
51902;DHT22;37929;53.218;6.548;2022-11-20T17:26:13;2.90;99.90
51902;DHT22;37929;53.218;6.548;2022-11-20T17:28:51;2.90;99.90
51902;DHT22;37929;53.218;6.548;2022-11-20T17:31:17;2.90;99.90
51902;DHT22;37929;53.218;6.548;2022-11-20T17:33:44;3.00;99.90
51902;DHT22;37929;53.218;6.548;2022-11-20T17:36:12;2.70;99.90
51902;DHT22;37929;53.218;6.548;2022-11-20T17:38:46;2.70;99.90
51902;DHT22;37929;53.218;6.548;2022-11-20T17:41:17;2.60;99.90
51902;DHT22;37929;53.218;6.548;2022-11-20T17:43:47;2.70;99.90
51902;DHT22;37929;53.218;6.548;2022-11-20T17:46:18;2.70;99.90
51902;DHT22;37929;53.218;6.548;2022-11-20T17:48:48;3.20;99.90
51902;DHT22;37929;53.218;6.548;2022-11-20T17:51:43;2.70;99.90